createdAt,value
2018-01-07T00:01:32.083Z,5.70
2018-01-07T00:03:59.701Z,5.70
2018-01-07T00:06:27.349Z,5.70
2018-01-07T00:08:55.190Z,5.70
2018-01-07T00:11:24.953Z,5.60
2018-01-07T00:13:52.625Z,5.60
2018-01-07T00:16:21.018Z,5.70
2018-01-07T00:18:48.712Z,5.70
2018-01-07T00:21:16.330Z,5.70
2018-01-07T00:23:46.424Z,5.70
2018-01-07T00:26:14.161Z,5.80
2018-01-07T00:28:41.774Z,5.80
2018-01-07T00:31:09.417Z,5.70
2018-01-07T00:33:37.059Z,5.60
2018-01-07T00:36:04.674Z,5.70
2018-01-07T00:38:32.325Z,5.60
2018-01-07T00:40:59.954Z,5.60
2018-01-07T00:43:28.368Z,5.60
2018-01-07T00:45:55.986Z,5.50
2018-01-07T00:48:23.596Z,5.50
2018-01-07T00:50:52.014Z,5.40
2018-01-07T00:53:19.629Z,5.30
2018-01-07T00:55:47.272Z,5.40
2018-01-07T00:58:14.885Z,5.40
2018-01-07T01:00:42.507Z,5.40
2018-01-07T01:03:10.158Z,5.40
2018-01-07T01:05:38.547Z,5.40
2018-01-07T01:08:06.956Z,5.40
2018-01-07T01:10:34.570Z,5.30
2018-01-07T01:13:02.202Z,5.40
2018-01-07T01:15:29.884Z,5.30
2018-01-07T01:17:57.498Z,5.30
2018-01-07T01:20:25.145Z,5.30
2018-01-07T01:22:52.758Z,5.20
2018-01-07T01:25:20.374Z,5.20
2018-01-07T01:27:48.024Z,5.20
2018-01-07T01:30:15.637Z,5.20
2018-01-07T01:32:43.289Z,5.20
2018-01-07T01:35:11.675Z,5.20
2018-01-07T01:37:40.058Z,5.20
2018-01-07T01:40:07.702Z,5.20
2018-01-07T01:42:35.331Z,5.20
2018-01-07T01:45:02.981Z,5.20
2018-01-07T01:47:31.371Z,5.10
2018-01-07T01:49:58.982Z,5.00
2018-01-07T01:52:26.625Z,5.10
2018-01-07T01:54:55.009Z,5.10
2018-01-07T01:57:23.315Z,5.10
2018-01-07T01:59:51.702Z,5.20
2018-01-07T02:02:20.085Z,5.10
2018-01-07T02:04:48.501Z,5.00
2018-01-07T02:07:16.121Z,5.00
2018-01-07T02:09:43.764Z,5.00
2018-01-07T02:12:11.381Z,5.10
2018-01-07T02:14:38.993Z,5.10
2018-01-07T02:17:06.645Z,5.10
2018-01-07T02:19:34.258Z,5.00
2018-01-07T02:22:01.905Z,5.10
2018-01-07T02:24:30.280Z,5.00
2018-01-07T02:26:57.901Z,5.00
2018-01-07T02:29:25.550Z,5.10
2018-01-07T02:31:53.933Z,5.20
2018-01-07T02:34:21.605Z,5.10
2018-01-07T02:36:49.981Z,5.10
2018-01-07T02:39:17.595Z,5.10
2018-01-07T02:41:45.242Z,5.10
2018-01-07T02:44:13.625Z,5.10
2018-01-07T02:46:41.288Z,5.10
2018-01-07T02:49:08.910Z,5.10
2018-01-07T02:51:36.546Z,5.00
2018-01-07T02:54:04.186Z,5.00
2018-01-07T02:56:31.810Z,5.00
2018-01-07T02:59:00.221Z,5.10
2018-01-07T03:01:27.845Z,5.00
2018-01-07T03:03:55.912Z,5.00
2018-01-07T03:06:23.553Z,5.00
2018-01-07T03:08:51.167Z,4.90
2018-01-07T03:11:18.808Z,5.00
2018-01-07T03:13:46.422Z,4.90
2018-01-07T03:16:14.038Z,4.90
2018-01-07T03:18:42.449Z,4.90
2018-01-07T03:21:10.063Z,4.90
2018-01-07T03:23:37.706Z,5.00
2018-01-07T03:26:05.323Z,5.00
2018-01-07T03:28:32.941Z,5.00
2018-01-07T03:31:00.588Z,5.00
2018-01-07T03:33:28.968Z,5.00
2018-01-07T03:35:56.613Z,5.00
2018-01-07T03:38:24.226Z,4.90
2018-01-07T03:40:52.608Z,4.90
2018-01-07T03:43:20.262Z,4.90
2018-01-07T03:45:47.873Z,4.90
2018-01-07T03:48:16.282Z,4.90
2018-01-07T03:50:43.905Z,4.90
2018-01-07T03:53:11.534Z,4.90
2018-01-07T03:55:39.174Z,5.00
2018-01-07T03:58:06.789Z,4.90
2018-01-07T04:00:34.434Z,4.90
2018-01-07T04:03:02.849Z,4.90
2018-01-07T04:05:30.462Z,4.90
2018-01-07T04:07:58.110Z,4.90
2018-01-07T04:10:25.716Z,4.90
2018-01-07T04:12:53.366Z,4.80
2018-01-07T04:15:21.009Z,4.70
2018-01-07T04:17:48.619Z,4.70
2018-01-07T04:20:16.262Z,4.80
2018-01-07T04:22:43.877Z,4.70
2018-01-07T04:25:11.490Z,4.80
2018-01-07T04:27:39.899Z,4.70
2018-01-07T04:30:07.514Z,4.70
2018-01-07T04:32:35.130Z,4.70
2018-01-07T04:35:02.784Z,4.70
2018-01-07T04:37:30.407Z,4.60
2018-01-07T04:39:58.017Z,4.50
2018-01-07T04:42:25.665Z,4.60
2018-01-07T04:44:53.273Z,4.60
2018-01-07T04:47:20.893Z,4.50
2018-01-07T04:49:48.538Z,4.50
2018-01-07T04:52:16.153Z,4.50
2018-01-07T04:54:43.769Z,4.50
2018-01-07T04:57:11.423Z,4.40
2018-01-07T04:59:40.482Z,4.40
2018-01-07T05:02:08.862Z,4.30
2018-01-07T05:04:37.276Z,4.30
2018-01-07T05:07:04.892Z,4.30
2018-01-07T05:09:32.505Z,4.40
2018-01-07T05:12:00.921Z,4.30
2018-01-07T05:14:28.561Z,4.30
2018-01-07T05:16:56.205Z,4.30
2018-01-07T05:19:23.854Z,4.30
2018-01-07T05:21:51.470Z,4.40
2018-01-07T05:24:19.113Z,4.40
2018-01-07T05:26:46.725Z,4.40
2018-01-07T05:29:14.345Z,4.30
2018-01-07T05:31:41.993Z,4.20
2018-01-07T05:34:10.382Z,4.30
2018-01-07T05:36:38.781Z,4.40
2018-01-07T05:39:07.205Z,4.30
2018-01-07T05:41:34.833Z,4.20
2018-01-07T05:44:03.218Z,4.30
2018-01-07T05:46:30.893Z,4.30
2018-01-07T05:48:58.523Z,4.30
2018-01-07T05:51:26.148Z,4.20
2018-01-07T05:53:54.570Z,4.20
2018-01-07T05:56:22.201Z,4.10
2018-01-07T05:58:49.834Z,4.20
2018-01-07T06:01:17.473Z,4.20
2018-01-07T06:03:45.855Z,4.20
2018-01-07T06:06:14.237Z,4.20
2018-01-07T06:08:41.959Z,4.20
2018-01-07T06:11:09.589Z,4.20
2018-01-07T06:13:38.019Z,4.00
2018-01-07T06:16:05.661Z,4.00
2018-01-07T06:18:33.297Z,4.00
2018-01-07T06:21:00.901Z,4.00
2018-01-07T06:23:28.605Z,3.90
2018-01-07T06:25:56.986Z,3.70
2018-01-07T06:28:25.360Z,3.70
2018-01-07T06:30:53.012Z,3.60
2018-01-07T06:33:20.633Z,3.70
2018-01-07T06:35:49.042Z,3.60
2018-01-07T06:38:16.689Z,3.60
2018-01-07T06:40:44.310Z,3.50
2018-01-07T06:43:11.931Z,3.60
2018-01-07T06:45:39.570Z,3.60
2018-01-07T06:48:07.177Z,3.30
2018-01-07T06:50:34.778Z,3.30
2018-01-07T06:53:02.413Z,3.30
2018-01-07T06:55:30.034Z,3.30
2018-01-07T06:57:57.650Z,3.30
2018-01-07T07:00:25.311Z,3.20
2018-01-07T07:02:52.925Z,3.20
2018-01-07T07:05:21.327Z,3.10
2018-01-07T07:07:49.743Z,3.00
2018-01-07T07:10:17.349Z,3.00
2018-01-07T07:12:44.959Z,3.10
2018-01-07T07:15:12.633Z,3.10
2018-01-07T07:17:41.001Z,3.00
2018-01-07T07:20:08.618Z,3.00
2018-01-07T07:22:36.258Z,3.00
2018-01-07T07:25:03.863Z,3.00
2018-01-07T07:27:32.235Z,2.90
2018-01-07T07:30:00.637Z,2.90
2018-01-07T07:32:29.017Z,3.00
2018-01-07T07:34:56.630Z,2.90
2018-01-07T07:37:24.267Z,2.90
2018-01-07T07:39:52.643Z,2.90
2018-01-07T07:42:20.250Z,2.80
2018-01-07T07:44:47.891Z,2.90
2018-01-07T07:47:15.505Z,3.00
2018-01-07T07:49:43.523Z,3.00
2018-01-07T07:52:11.160Z,3.10
2018-01-07T07:54:38.774Z,3.10
2018-01-07T07:57:06.373Z,3.00
2018-01-07T07:59:34.008Z,3.10
2018-01-07T08:02:01.614Z,3.00
2018-01-07T08:04:29.217Z,3.00
2018-01-07T08:06:57.629Z,3.10
2018-01-07T08:09:25.241Z,3.00
2018-01-07T08:11:52.857Z,3.10
2018-01-07T08:14:21.277Z,2.90
2018-01-07T08:16:48.895Z,2.90
2018-01-07T08:19:16.500Z,3.10
2018-01-07T08:21:44.911Z,3.00
2018-01-07T08:24:12.522Z,2.90
2018-01-07T08:26:40.132Z,2.90
2018-01-07T08:29:08.546Z,2.80
2018-01-07T08:31:36.153Z,2.70
2018-01-07T08:34:03.757Z,2.80
2018-01-07T08:36:31.399Z,2.90
2018-01-07T08:38:59.002Z,2.80
2018-01-07T08:41:26.616Z,2.90
2018-01-07T08:43:54.262Z,3.00
2018-01-07T08:46:22.634Z,3.10
2018-01-07T08:48:50.241Z,3.00
2018-01-07T08:51:17.936Z,2.90
2018-01-07T08:53:45.537Z,3.00
2018-01-07T08:56:13.137Z,3.00
2018-01-07T08:58:40.774Z,3.00
2018-01-07T09:01:08.376Z,3.00
2018-01-07T09:03:36.035Z,3.00
2018-01-07T09:06:03.665Z,3.00
2018-01-07T09:08:31.294Z,3.00
2018-01-07T09:10:58.934Z,3.00
2018-01-07T09:13:26.543Z,3.00
2018-01-07T09:15:54.146Z,3.10
2018-01-07T09:18:22.561Z,3.00
2018-01-07T09:20:50.166Z,3.00
2018-01-07T09:23:17.801Z,3.00
2018-01-07T09:25:45.422Z,3.00
2018-01-07T09:28:13.033Z,2.90
2018-01-07T09:30:41.446Z,2.90
2018-01-07T09:33:09.046Z,2.90
2018-01-07T09:35:36.685Z,2.90
2018-01-07T09:38:04.678Z,2.90
2018-01-07T09:40:32.283Z,3.00
2018-01-07T09:42:59.922Z,3.00
2018-01-07T09:45:27.532Z,3.00
2018-01-07T09:47:55.421Z,2.80
2018-01-07T09:50:23.097Z,2.80
2018-01-07T09:52:50.909Z,2.80
2018-01-07T09:55:18.853Z,2.80
2018-01-07T09:57:46.532Z,2.80
2018-01-07T10:00:14.161Z,2.90
2018-01-07T10:02:41.774Z,2.70
2018-01-07T10:05:09.379Z,2.70
2018-01-07T10:07:37.784Z,2.80
2018-01-07T10:10:05.388Z,2.70
2018-01-07T10:12:33.035Z,2.80
2018-01-07T10:15:00.646Z,2.80
2018-01-07T10:17:28.281Z,2.90
2018-01-07T10:19:55.958Z,2.90
2018-01-07T10:22:24.354Z,3.00
2018-01-07T10:24:52.023Z,2.90
2018-01-07T10:27:19.669Z,3.00
2018-01-07T10:29:47.288Z,3.00
2018-01-07T10:34:48.942Z,3.20
2018-01-07T10:37:16.616Z,3.20
2018-01-07T10:39:45.766Z,3.20
2018-01-07T10:42:14.152Z,3.10
2018-01-07T10:44:41.852Z,3.00
2018-01-07T10:47:09.481Z,3.00
2018-01-07T10:49:37.925Z,3.20
2018-01-07T10:52:05.644Z,3.10
2018-01-07T10:54:33.257Z,3.20
2018-01-07T10:57:00.982Z,3.20
2018-01-07T10:59:28.609Z,3.20
2018-01-07T11:01:57.508Z,3.20
2018-01-07T11:04:25.113Z,3.20
2018-01-07T11:06:52.760Z,3.10
2018-01-07T11:09:20.492Z,3.10
2018-01-07T11:11:48.118Z,3.10
2018-01-07T11:14:15.791Z,3.20
2018-01-07T11:16:43.498Z,3.20
2018-01-07T11:19:11.811Z,3.20
2018-01-07T11:21:40.299Z,3.10
2018-01-07T11:24:09.052Z,3.10
2018-01-07T11:26:36.869Z,3.10
2018-01-07T11:29:04.491Z,3.20
2018-01-07T11:31:32.131Z,3.20
2018-01-07T11:34:00.626Z,3.00
2018-01-07T11:36:29.000Z,3.00
2018-01-07T11:38:56.735Z,2.90
2018-01-07T11:41:24.450Z,3.00
2018-01-07T11:43:52.102Z,3.10
2018-01-07T11:46:19.784Z,3.20
2018-01-07T11:48:47.419Z,3.10
2018-01-07T11:51:15.103Z,3.10
2018-01-07T11:53:42.762Z,3.20
2018-01-07T11:56:11.146Z,3.20
2018-01-07T11:58:39.562Z,3.20
2018-01-07T12:01:07.301Z,3.10
2018-01-07T12:03:35.879Z,3.30
2018-01-07T12:06:03.607Z,3.20
2018-01-07T12:08:32.961Z,3.20
2018-01-07T12:11:00.665Z,3.20
2018-01-07T12:13:29.061Z,3.20
2018-01-07T12:15:57.574Z,3.10
2018-01-07T12:18:25.214Z,3.00
2018-01-07T12:20:53.804Z,3.10
2018-01-07T12:23:21.441Z,3.20
2018-01-07T12:25:49.070Z,3.20
2018-01-07T12:28:17.127Z,3.30
2018-01-07T12:30:45.907Z,3.30
2018-01-07T12:33:14.744Z,3.40
2018-01-07T12:35:42.397Z,3.40
2018-01-07T12:38:10.025Z,3.40
2018-01-07T12:40:38.460Z,3.40
2018-01-07T12:43:06.122Z,3.30
2018-01-07T12:45:33.752Z,3.20
2018-01-07T12:48:02.251Z,3.20
2018-01-07T12:50:29.917Z,3.30
2018-01-07T12:52:57.790Z,3.40
2018-01-07T12:55:26.217Z,3.30
2018-01-07T12:57:54.950Z,3.30
2018-01-07T13:00:23.416Z,3.30
2018-01-07T13:02:51.074Z,3.20
2018-01-07T13:05:19.370Z,3.10
2018-01-07T13:07:47.038Z,3.10
2018-01-07T13:10:15.514Z,3.20
2018-01-07T13:12:43.366Z,3.10
2018-01-07T13:15:10.992Z,3.10
2018-01-07T13:17:38.952Z,3.10
2018-01-07T13:20:06.590Z,3.10
2018-01-07T13:22:34.302Z,3.10
2018-01-07T13:25:02.716Z,3.20
2018-01-07T13:27:30.350Z,3.10
2018-01-07T13:29:58.022Z,3.30
2018-01-07T13:32:25.654Z,3.20
2018-01-07T13:34:53.316Z,3.30
2018-01-07T13:37:20.933Z,3.30
2018-01-07T13:39:48.563Z,3.30
2018-01-07T13:42:16.225Z,3.30
2018-01-07T13:44:44.662Z,3.20
2018-01-07T13:47:12.328Z,3.10
2018-01-07T13:49:39.959Z,3.20
2018-01-07T13:52:08.407Z,3.30
2018-01-07T13:54:42.609Z,3.30
2018-01-07T13:57:10.239Z,3.30
2018-01-07T13:59:41.466Z,3.10
2018-01-07T14:02:09.106Z,3.10
2018-01-07T14:04:36.737Z,3.10
2018-01-07T14:07:04.386Z,3.20
2018-01-07T14:09:32.033Z,3.20
2018-01-07T14:11:59.778Z,3.20
2018-01-07T14:14:27.437Z,3.20
2018-01-07T14:16:55.134Z,3.30
2018-01-07T14:19:23.565Z,3.30
2018-01-07T14:21:51.200Z,3.30
2018-01-07T14:24:18.850Z,3.30
2018-01-07T14:26:46.483Z,3.30
2018-01-07T14:29:14.121Z,3.30
2018-01-07T14:31:42.540Z,3.30
2018-01-07T14:34:10.165Z,3.30
2018-01-07T14:36:37.818Z,3.30
2018-01-07T14:39:05.465Z,3.30
2018-01-07T14:41:33.133Z,3.20
2018-01-07T14:44:00.794Z,3.20
2018-01-07T14:46:29.174Z,3.20
2018-01-07T14:48:57.598Z,3.20
2018-01-07T14:51:25.215Z,3.20
2018-01-07T14:53:52.847Z,3.30
2018-01-07T14:56:20.921Z,3.30
2018-01-07T14:58:48.540Z,3.30
2018-01-07T15:01:16.214Z,3.30
2018-01-07T15:03:43.836Z,3.20
2018-01-07T15:06:12.217Z,3.20
2018-01-07T15:08:40.639Z,3.30
2018-01-07T15:11:08.291Z,3.20
2018-01-07T15:13:35.941Z,3.20
2018-01-07T15:16:03.561Z,3.30
2018-01-07T15:18:31.181Z,3.20
2018-01-07T15:20:58.832Z,3.30
2018-01-07T15:23:26.445Z,3.30
2018-01-07T15:25:54.094Z,3.30
2018-01-07T15:28:21.711Z,3.20
2018-01-07T15:30:50.091Z,3.20
2018-01-07T15:33:18.518Z,3.10
2018-01-07T15:35:46.138Z,3.10
2018-01-07T15:38:13.881Z,3.20
2018-01-07T15:40:41.517Z,3.10
2018-01-07T15:43:09.905Z,3.10
2018-01-07T15:45:38.327Z,3.10
2018-01-07T15:48:05.945Z,3.10
2018-01-07T15:50:33.589Z,3.10
2018-01-07T15:53:01.243Z,3.00
2018-01-07T15:55:28.865Z,2.90
2018-01-07T15:57:56.516Z,3.00
2018-01-07T16:00:24.150Z,2.90
2018-01-07T16:02:52.562Z,2.80
2018-01-07T16:05:20.181Z,2.80
2018-01-07T16:07:47.841Z,2.80
2018-01-07T16:10:15.501Z,2.90
2018-01-07T16:12:43.117Z,3.00
2018-01-07T16:15:10.759Z,2.90
2018-01-07T16:17:38.383Z,3.00
2018-01-07T16:20:06.007Z,3.00
2018-01-07T16:22:33.650Z,2.80
2018-01-07T16:25:01.874Z,2.90
2018-01-07T16:27:29.521Z,2.90
2018-01-07T16:29:57.702Z,2.90
2018-01-07T16:32:25.333Z,2.90
2018-01-07T16:34:53.035Z,3.00
2018-01-07T16:37:21.409Z,3.00
2018-01-07T16:39:49.062Z,2.90
2018-01-07T16:42:16.678Z,3.00
2018-01-07T16:44:45.053Z,2.80
2018-01-07T16:47:12.740Z,2.80
2018-01-07T16:49:40.494Z,2.70
2018-01-07T16:52:08.138Z,2.80
2018-01-07T16:54:35.753Z,2.70
2018-01-07T16:57:04.136Z,2.60
2018-01-07T16:59:31.805Z,2.60
2018-01-07T17:01:59.509Z,2.60
2018-01-07T17:04:28.462Z,2.60
2018-01-07T17:06:56.082Z,2.50
2018-01-07T17:09:24.524Z,2.50
2018-01-07T17:11:52.187Z,2.50
2018-01-07T17:14:19.806Z,2.50
2018-01-07T17:16:47.447Z,2.50
2018-01-07T17:19:15.072Z,2.50
2018-01-07T17:21:43.453Z,2.50
2018-01-07T17:24:11.869Z,2.50
2018-01-07T17:26:39.486Z,2.50
2018-01-07T17:29:07.144Z,2.50
2018-01-07T17:31:34.768Z,2.40
2018-01-07T17:34:03.153Z,2.60
2018-01-07T17:36:30.801Z,2.50
2018-01-07T17:38:58.431Z,2.50
2018-01-07T17:41:26.078Z,2.50
2018-01-07T17:43:53.694Z,2.60
2018-01-07T17:46:21.309Z,2.50
2018-01-07T17:48:48.966Z,2.50
2018-01-07T17:51:16.582Z,2.50
2018-01-07T17:53:45.062Z,2.50
2018-01-07T17:56:12.649Z,2.40
2018-01-07T17:58:41.034Z,2.50
2018-01-07T18:01:08.687Z,2.50
2018-01-07T18:03:36.297Z,2.40
2018-01-07T18:06:04.736Z,2.40
2018-01-07T18:08:32.389Z,2.30
2018-01-07T18:11:00.019Z,2.30
2018-01-07T18:13:27.685Z,2.40
2018-01-07T18:15:55.322Z,2.40
2018-01-07T18:18:22.979Z,2.30
2018-01-07T18:20:50.598Z,2.40
2018-01-07T18:23:18.214Z,2.30
2018-01-07T18:25:46.631Z,2.20
2018-01-07T18:28:14.273Z,2.20
2018-01-07T18:30:42.686Z,2.30
2018-01-07T18:33:10.303Z,2.20
2018-01-07T18:35:37.926Z,2.30
2018-01-07T18:38:05.580Z,2.30
2018-01-07T18:40:33.960Z,2.40
2018-01-07T18:43:01.621Z,2.30
2018-01-07T18:45:29.242Z,2.40
2018-01-07T18:47:56.862Z,2.40
2018-01-07T18:50:24.508Z,2.40
2018-01-07T18:52:52.126Z,2.30
2018-01-07T18:55:19.781Z,2.30
2018-01-07T18:57:47.395Z,2.30
2018-01-07T19:00:15.803Z,2.20
2018-01-07T19:02:43.454Z,2.20
2018-01-07T19:05:11.069Z,2.20
2018-01-07T19:07:38.722Z,2.10
2018-01-07T19:10:06.346Z,2.20
2018-01-07T19:12:33.972Z,2.20
2018-01-07T19:15:01.630Z,2.20
2018-01-07T19:17:30.023Z,2.10
2018-01-07T19:19:58.462Z,2.20
2018-01-07T19:22:26.087Z,2.10
2018-01-07T19:24:54.475Z,2.10
2018-01-07T19:27:22.894Z,2.10
2018-01-07T19:29:50.518Z,2.10
2018-01-07T19:32:18.167Z,2.10
2018-01-07T19:34:45.814Z,2.10
2018-01-07T19:37:13.458Z,2.10
2018-01-07T19:39:41.105Z,2.10
2018-01-07T19:42:08.739Z,2.10
2018-01-07T19:44:36.397Z,2.10
2018-01-07T19:47:04.790Z,2.20
2018-01-07T19:49:33.184Z,2.10
2018-01-07T19:52:01.607Z,2.20
2018-01-07T19:54:29.220Z,2.20
2018-01-07T19:56:56.865Z,2.20
2018-01-07T19:59:24.481Z,2.10
2018-01-07T20:01:52.093Z,2.10
2018-01-07T20:04:20.845Z,2.10
2018-01-07T20:06:53.652Z,2.20
2018-01-07T20:09:22.482Z,2.10
2018-01-07T20:11:51.049Z,2.20
2018-01-07T20:14:25.111Z,2.20
2018-01-07T20:16:52.741Z,2.20
2018-01-07T20:19:20.379Z,2.20
2018-01-07T20:21:48.075Z,2.10
2018-01-07T20:24:15.871Z,2.00
2018-01-07T20:26:43.669Z,2.00
2018-01-07T20:29:12.054Z,1.90
2018-01-07T20:31:40.446Z,1.90
2018-01-07T20:34:08.869Z,2.00
2018-01-07T20:36:36.486Z,2.00
2018-01-07T20:39:04.128Z,2.10
2018-01-07T20:41:31.750Z,2.10
2018-01-07T20:43:59.381Z,2.10
2018-01-07T20:46:27.030Z,2.00
2018-01-07T20:48:54.657Z,2.00
2018-01-07T20:51:22.319Z,1.90
2018-01-07T20:53:49.967Z,2.00
2018-01-07T20:56:17.593Z,1.90
2018-01-07T20:58:45.245Z,1.90
2018-01-07T21:01:12.908Z,1.90
2018-01-07T21:03:40.565Z,1.90
2018-01-07T21:06:08.192Z,2.00
2018-01-07T21:08:35.928Z,2.00
2018-01-07T21:11:03.624Z,1.90
2018-01-07T21:13:31.285Z,1.80
2018-01-07T21:15:58.948Z,1.90
2018-01-07T21:18:26.568Z,1.90
2018-01-07T21:20:55.022Z,1.80
2018-01-07T21:23:22.682Z,1.80
2018-01-07T21:25:50.362Z,1.80
2018-01-07T21:28:18.019Z,1.80
2018-01-07T21:30:45.648Z,1.90
2018-01-07T21:33:13.303Z,1.80
2018-01-07T21:35:40.962Z,1.80
2018-01-07T21:38:08.585Z,1.70
2018-01-07T21:40:37.004Z,1.80
2018-01-07T21:43:04.625Z,1.80
2018-01-07T21:45:32.273Z,1.70
2018-01-07T21:47:59.901Z,1.80
2018-01-07T21:50:28.296Z,1.80
2018-01-07T21:52:56.773Z,1.80
2018-01-07T21:55:24.413Z,1.80
2018-01-07T21:57:52.126Z,1.90
2018-01-07T22:00:40.510Z,1.90
2018-01-07T22:03:19.967Z,1.90
2018-01-07T22:05:54.941Z,1.90
2018-01-07T22:08:26.573Z,1.80
2018-01-07T22:10:55.434Z,1.80
2018-01-07T22:13:23.094Z,1.90
2018-01-07T22:15:50.748Z,1.90
2018-01-07T22:18:18.363Z,1.90
2018-01-07T22:20:46.671Z,1.90
2018-01-07T22:23:18.339Z,1.80
2018-01-07T22:25:46.281Z,1.80
2018-01-07T22:28:15.575Z,1.80
2018-01-07T22:30:50.325Z,1.80
2018-01-07T22:33:18.463Z,1.80
2018-01-07T22:35:46.881Z,1.90
2018-01-07T22:38:14.570Z,1.90
2018-01-07T22:40:42.196Z,1.90
2018-01-07T22:43:09.850Z,1.90
2018-01-07T22:45:41.096Z,1.90
2018-01-07T22:48:09.451Z,1.90
2018-01-07T22:50:37.126Z,1.90
2018-01-07T22:53:05.505Z,1.90
2018-01-07T22:55:34.121Z,2.00
2018-01-07T22:58:02.019Z,1.90
2018-01-07T23:00:29.698Z,1.90
2018-01-07T23:02:57.318Z,1.90
2018-01-07T23:05:24.949Z,1.90
2018-01-07T23:07:52.607Z,1.90
2018-01-07T23:10:20.243Z,1.90
2018-01-07T23:12:47.928Z,1.90
2018-01-07T23:15:15.571Z,1.90
2018-01-07T23:17:43.205Z,2.00
2018-01-07T23:20:10.870Z,1.90
2018-01-07T23:22:39.273Z,1.90
2018-01-07T23:25:08.306Z,1.90
2018-01-07T23:27:37.162Z,1.80
2018-01-07T23:30:05.542Z,1.80
2018-01-07T23:32:33.196Z,1.80
2018-01-07T23:35:00.817Z,1.80
2018-01-07T23:37:28.466Z,1.80
2018-01-07T23:39:56.866Z,1.80
2018-01-07T23:42:25.276Z,1.80
2018-01-07T23:44:52.925Z,1.80
2018-01-07T23:47:20.548Z,1.90
2018-01-07T23:49:48.193Z,1.90
2018-01-07T23:52:16.575Z,1.90
2018-01-07T23:54:44.973Z,1.90
2018-01-07T23:57:12.634Z,1.90
2018-01-07T23:59:41.021Z,1.90
